Nome, AK

10:26 AM AKST on February 09, 2016 (GMT -0900)
Golovin

Weather History for PAGL - September, 2013

Change the Weather History Date:

Friday, September 13, 2013

  Actual Average Record
Temperature  
Mean Temperature 42 °F -  
Max Temperature 50 °F - - ()
Min Temperature 33 °F - - ()
Degree Days  
Heating Degree Days 24    
Moisture  
Dew Point 39 °F    
Average Humidity 88    
Maximum Humidity 100    
Minimum Humidity 76    
Precipitation  
Precipitation 0.01 in - - ()
Sea Level Pressure  
Sea Level Pressure 29.88 in    
Wind  
Wind Speed 6 mph (SSW)    
Max Wind Speed 14 mph    
Max Gust Speed -    
Visibility 9 miles    
Events      
T = Trace of Precipitation, MM = Missing Value Source: NWS Daily Summary

Daily Weather History Graph

Daily Weather History Graph

Search for Another Location

Airport or City:

Trip Planner

Search our weather history database for the weather conditions in past years. The results will help you decide how hot, cold, wet, or windy it might be!

Date:

Astronomy

Sep. 13, 2013 Rise Set
Actual Time 8:10 AM AKDT 9:23 PM AKDT
Civil Twilight 7:20 AM AKDT 10:13 PM AKDT
Nautical Twilight 6:15 AM AKDT 11:17 PM AKDT
Astronomical Twilight 4:53 AM AKDT 12:36 AM AKDT
Moon 7:02 PM AKDT (9/13) 12:04 AM AKDT (9/13)
Length of Visible Light 14h 53m
Length of Day
13h 13m
Waxing Gibbous, 63% of the Moon is Illuminated
Sep 13
Waxing Gibbous
Sep 19
Full
Sep 26
Last Quarter
Oct 4
New
Oct 11
First Quarter

Hourly Weather History & Observations

Time (AKDT) Temp. Windchill Dew Point Humidity Pressure Visibility Wind Dir Wind Speed Gust Speed Precip Events Conditions
12:16 AM 42.8 °F 41.1 °F 37.4 °F 81% 29.81 in 10.0 mi North 3.5 mph - N/A   Overcast
12:36 AM 41.0 °F 39.0 °F 37.4 °F 87% 29.82 in 10.0 mi NW 3.5 mph - N/A   Overcast
12:56 AM 42.8 °F 41.1 °F 37.4 °F 81% 29.81 in 10.0 mi WNW 3.5 mph - N/A   Scattered Clouds
1:16 AM 42.8 °F 40.1 °F 35.6 °F 76% 29.82 in 10.0 mi WNW 4.6 mph - N/A   Clear
1:36 AM 42.8 °F 41.1 °F 37.4 °F 81% 29.83 in 10.0 mi West 3.5 mph - N/A   Clear
1:56 AM 37.4 °F - 35.6 °F 93% 29.84 in 10.0 mi Calm Calm - N/A   Clear
2:16 AM 35.6 °F 31.7 °F 32.0 °F 87% 29.85 in 10.0 mi NNE 4.6 mph - N/A   Clear
2:36 AM 33.8 °F 28.6 °F 32.0 °F 93% 29.85 in 10.0 mi NNE 5.8 mph - N/A   Clear
2:56 AM 35.6 °F 30.7 °F 33.8 °F 93% 29.86 in 10.0 mi North 5.8 mph - N/A   Mostly Cloudy
3:16 AM 33.8 °F 27.7 °F 32.0 °F 93% 29.86 in 10.0 mi NNE 6.9 mph - N/A   Partly Cloudy
3:36 AM 33.8 °F 28.6 °F 30.2 °F 87% 29.86 in 10.0 mi NE 5.8 mph - N/A   Clear
3:56 AM 33.8 °F 27.7 °F 32.0 °F 93% 29.86 in 10.0 mi NNE 6.9 mph - N/A   Clear
4:16 AM 33.8 °F 27.7 °F 32.0 °F 93% 29.86 in 10.0 mi NNE 6.9 mph - N/A   Clear
4:36 AM 37.4 °F 32.8 °F 33.8 °F 87% 29.86 in 10.0 mi NE 5.8 mph - N/A   Partly Cloudy
4:56 AM 33.8 °F 28.6 °F 30.2 °F 87% 29.86 in 10.0 mi NE 5.8 mph - N/A   Mostly Cloudy
5:16 AM 37.4 °F 34.9 °F 33.8 °F 87% 29.86 in 10.0 mi East 3.5 mph - N/A   Overcast
5:36 AM 37.4 °F 34.9 °F 33.8 °F 87% 29.86 in 10.0 mi ENE 3.5 mph - N/A   Overcast
5:56 AM 37.4 °F 34.9 °F 33.8 °F 87% 29.86 in 10.0 mi East 3.5 mph - N/A   Overcast
6:16 AM 37.4 °F 34.9 °F 33.8 °F 87% 29.87 in 10.0 mi SE 3.5 mph - N/A   Overcast
6:36 AM 39.2 °F - 35.6 °F 87% 29.87 in 10.0 mi Calm Calm - N/A   Overcast
6:56 AM 39.2 °F 37.0 °F 37.4 °F 93% 29.87 in 10.0 mi South 3.5 mph - N/A   Overcast
7:16 AM 37.4 °F 34.9 °F 35.6 °F 93% 29.87 in 10.0 mi East 3.5 mph - N/A   Overcast
7:36 AM 39.2 °F - 35.6 °F 87% 29.87 in 10.0 mi Calm Calm - N/A   Overcast
7:56 AM 37.4 °F 34.9 °F 35.6 °F 93% 29.87 in 10.0 mi East 3.5 mph - N/A   Overcast
8:16 AM 37.4 °F 33.8 °F 33.8 °F 87% 29.87 in 10.0 mi ENE 4.6 mph - N/A   Mostly Cloudy
8:36 AM 39.2 °F 35.9 °F 35.6 °F 87% 29.87 in 10.0 mi East 4.6 mph - N/A   Overcast
8:56 AM 39.2 °F 35.9 °F 35.6 °F 87% 29.87 in 10.0 mi East 4.6 mph - N/A   Overcast
9:16 AM 39.2 °F 35.9 °F 35.6 °F 87% 29.87 in 10.0 mi East 4.6 mph - N/A   Overcast
9:36 AM 42.8 °F 38.0 °F 37.4 °F 81% 29.87 in 10.0 mi South 8.1 mph - N/A   Overcast
9:56 AM 44.6 °F 40.2 °F 39.2 °F 81% 29.87 in 10.0 mi South 8.1 mph - N/A   Overcast
10:16 AM 44.6 °F 39.7 °F 39.2 °F 81% 29.87 in 10.0 mi South 9.2 mph - N/A   Overcast
10:36 AM 44.6 °F 39.2 °F 39.2 °F 81% 29.87 in 10.0 mi South 10.4 mph - N/A   Overcast
10:56 AM 46.4 °F 41.9 °F 39.2 °F 76% 29.87 in 10.0 mi South 9.2 mph - N/A   Overcast
11:16 AM 46.4 °F 41.9 °F 39.2 °F 76% 29.87 in 10.0 mi SSW 9.2 mph - N/A   Overcast
11:36 AM 46.4 °F 41.5 °F 39.2 °F 76% 29.87 in 10.0 mi South 10.4 mph - N/A   Overcast
11:56 AM 46.4 °F 42.4 °F 39.2 °F 76% 29.88 in 10.0 mi SSW 8.1 mph - N/A   Overcast
12:16 PM 46.4 °F 41.1 °F 39.2 °F 76% 29.88 in 10.0 mi SSW 11.5 mph - N/A   Overcast
12:36 PM 46.4 °F 41.5 °F 41.0 °F 81% 29.89 in 10.0 mi SSW 10.4 mph - N/A   Overcast
12:56 PM 46.4 °F 41.1 °F 41.0 °F 81% 29.88 in 10.0 mi SSW 11.5 mph - N/A   Overcast
1:16 PM 48.2 °F - 42.8 °F 82% 29.89 in 10.0 mi South 13.8 mph - N/A   Overcast
1:36 PM 46.4 °F 40.4 °F 44.6 °F 93% 29.89 in 4.0 mi SW 13.8 mph - N/A   Mostly Cloudy
1:56 PM 44.6 °F 39.7 °F 42.8 °F 93% 29.89 in 2.0 mi SW 9.2 mph - 0.01 in   Overcast
2:16 PM 46.4 °F 40.4 °F 42.8 °F 87% 29.90 in 9.0 mi SSW 13.8 mph - N/A   Overcast
2:36 PM 46.4 °F 41.1 °F 42.8 °F 87% 29.90 in 3.0 mi SSW 11.5 mph - N/A   Overcast
2:56 PM 46.4 °F 41.9 °F 44.6 °F 93% 29.90 in 2.5 mi South 9.2 mph - N/A   Overcast
3:16 PM 46.4 °F 42.4 °F 44.6 °F 93% 29.90 in 2.0 mi South 8.1 mph - N/A   Overcast
3:36 PM 46.4 °F 40.7 °F 44.6 °F 93% 29.89 in 3.0 mi South 12.7 mph - N/A   Overcast
3:56 PM 46.4 °F 41.5 °F 46.4 °F 100% 29.89 in 5.0 mi South 10.4 mph - N/A   Overcast
4:16 PM 46.4 °F 41.5 °F 46.4 °F 100% 29.89 in 3.0 mi South 10.4 mph - N/A   Overcast
4:36 PM 48.2 °F - 46.4 °F 93% 29.89 in 4.0 mi SSW 10.4 mph - N/A   Overcast
5:16 PM 48.2 °F - 46.4 °F 93% 29.89 in 4.0 mi South 11.5 mph - N/A   Overcast
6:16 PM 48.2 °F - 46.4 °F 93% 29.89 in 10.0 mi West 5.8 mph - N/A   Overcast
6:36 PM 48.2 °F - 46.4 °F 93% 29.90 in 10.0 mi West 5.8 mph - N/A   Overcast
6:56 PM 50.0 °F - 46.4 °F 87% 29.90 in 10.0 mi West 6.9 mph - N/A   Overcast
7:16 PM 50.0 °F - 46.4 °F 87% 29.91 in 10.0 mi West 4.6 mph - N/A   Overcast
7:36 PM 48.2 °F - 46.4 °F 93% 29.91 in 10.0 mi WSW 4.6 mph - N/A   Overcast
7:56 PM 48.2 °F - 46.4 °F 93% 29.92 in 4.0 mi West 5.8 mph - N/A   Overcast
8:16 PM 48.2 °F - 46.4 °F 93% 29.92 in 10.0 mi NNW 11.5 mph - N/A   Overcast
9:16 PM 46.4 °F 41.9 °F 44.6 °F 93% 29.95 in 10.0 mi North 9.2 mph - N/A   Mostly Cloudy
10:16 PM 44.6 °F 40.2 °F 42.8 °F 93% 29.97 in 10.0 mi NNW 8.1 mph - N/A   Overcast
10:36 PM 44.6 °F 40.7 °F 42.8 °F 93% 29.98 in 10.0 mi NNW 6.9 mph - N/A   Mostly Cloudy
10:56 PM 44.6 °F 39.2 °F 42.8 °F 93% 29.98 in 10.0 mi NNW 10.4 mph - N/A   Partly Cloudy
11:16 PM 42.8 °F 37.0 °F 41.0 °F 93% 29.99 in 10.0 mi NNW 10.4 mph - N/A   Clear